Cheikh El Mokrani — C6WD5 — position and weather

sailwx.info

Track history (hours):
 
Tides and Currents Weather Stations Pressure Air Temp Water Temp Dewpoint Dewpoint Depression Visibility Wind Speed Wind Dir Waves Ship Positions

Cheikh El Mokrani

Last reported at 2014-Sep-21 22:09 UTC. Time now 2014-Sep-23 16:22 UTC.
Position N 41°09' E 005°43'.

Length 220 m; draft 7.9 m.

Type: Ship (hazmat cat D). MMSI: 309979000.

Date/timePositionNaut miles runAvg speedWind from/ knotsBaromVisibWave heightAir tempDewpointWater temp
2014-Sep-21 22:09N 41°09' E 005°43'1216.5
2014-Sep-21 21:26N 41°20' E 005°39'1416.3
2014-Sep-21 20:33N 41°34' E 005°34'2316.2
2014-Sep-21 19:07N 41°57' E 005°27'916.3
2014-Sep-21 18:33N 42°05' E 005°24'1717.0
2014-Sep-21 17:33N 42°22' E 005°18'1716.7
2014-Sep-21 16:33N 42°38' E 005°13'1716.8
2014-Sep-21 15:33N 42°54' E 005°07'1616.4
2014-Sep-21 14:33N 43°10' E 005°01'1313.3
2014-Sep-21 13:34N 43°23' E 004°57'6 5.5
2014-Sep-21 12:31N 43°27' E 004°51'0 0.0
2014-Sep-21 11:28N 43°27' E 004°51'0 0.0
2014-Sep-21 10:31N 43°27' E 004°51'0 0.0
2014-Sep-21 09:28N 43°27' E 004°51'0 0.0
2014-Sep-21 08:31N 43°27' E 004°51'0 0.0
2014-Sep-21 07:31N 43°27' E 004°51'0 0.0
2014-Sep-21 06:31N 43°27' E 004°51'0 0.0
2014-Sep-21 05:31N 43°27' E 004°51'0 0.0
2014-Sep-21 04:31N 43°27' E 004°51'0 0.0
2014-Sep-21 03:25N 43°27' E 004°51'0 0.0
2014-Sep-21 02:31N 43°27' E 004°51'0 0.0
2014-Sep-21 01:28N 43°27' E 004°51'0 0.0
2014-Sep-21 00:28N 43°27' E 004°51'0 0.0
2014-Sep-20 23:31N 43°27' E 004°51'0 0.0
2014-Sep-20 22:28N 43°27' E 004°51'0 0.0
2014-Sep-20 21:31N 43°27' E 004°51'0 0.0
2014-Sep-20 20:28N 43°27' E 004°51'0 0.0
2014-Sep-20 19:31N 43°27' E 004°51'0 0.0
2014-Sep-20 18:31N 43°27' E 004°51'0 0.0
2014-Sep-20 17:31N 43°27' E 004°51'0 0.0
2014-Sep-20 16:31N 43°27' E 004°51'0 0.0
2014-Sep-20 15:31N 43°27' E 004°51'0 0.0
2014-Sep-20 14:31N 43°27' E 004°51'0 0.0
2014-Sep-20 13:31N 43°27' E 004°51'0 0.0
2014-Sep-20 12:28N 43°27' E 004°51'0 0.0
2014-Sep-20 11:31N 43°27' E 004°51'0 0.0
2014-Sep-20 10:31N 43°27' E 004°51'0 0.0
2014-Sep-20 09:31N 43°27' E 004°51'0 0.0
2014-Sep-20 08:28N 43°27' E 004°51'0 0.0
2014-Sep-20 07:31N 43°27' E 004°51'0 0.0
2014-Sep-20 06:28N 43°27' E 004°51'0 0.0
2014-Sep-20 05:28N 43°27' E 004°51'0 0.0
2014-Sep-20 04:31N 43°27' E 004°51'0 0.0
2014-Sep-20 03:31N 43°27' E 004°51'0 0.0
2014-Sep-20 02:31N 43°27' E 004°51'0 0.0
2014-Sep-20 01:31N 43°27' E 004°51'0 0.0
2014-Sep-20 00:25N 43°27' E 004°51'0 0.0
2014-Sep-19 23:31N 43°27' E 004°51'0 0.0
2014-Sep-19 22:31N 43°27' E 004°51'0 0.0
2014-Sep-19 21:31N 43°27' E 004°51'0 0.0
2014-Sep-19 20:28N 43°27' E 004°51'0 0.0
2014-Sep-19 19:28N 43°27' E 004°51'0 0.0
2014-Sep-19 18:31N 43°27' E 004°51'0 0.0
2014-Sep-19 17:28N 43°27' E 004°51'0 0.0
2014-Sep-19 16:33N 43°27' E 004°51'3 3.0
2014-Sep-19 15:34N 43°24' E 004°53'8 8.4
2014-Sep-19 14:34N 43°18' E 005°00'8 8.5
2014-Sep-19 13:34N 43°09' E 005°03'10 9.8
2014-Sep-19 12:34N 42°60' E 005°06'20 9.6
2014-Sep-19 10:30N 42°41' E 005°13'1010.4
2014-Sep-19 09:30N 42°31' E 005°17'3213.7
2014-Sep-19 07:10N 41°60' E 005°28'56 2.7
2014-Sep-18 10:25N 41°05' E 005°48'1 0.5
2014-Sep-18 09:12N 41°05' E 005°48'4 6.3
2014-Sep-18 08:31N 41°00' E 005°48'14210.0
2014-Sep-17 18:14N 38°43' E 006°34'912.4
2014-Sep-17 17:32N 38°34' E 006°36'1712.2
2014-Sep-17 16:08N 38°18' E 006°42'811.7
2014-Sep-17 15:24N 38°10' E 006°45'2712.3
2014-Sep-17 13:11N 37°43' E 006°53'2212.4
2014-Sep-17 11:26N 37°22' E 007°01'  
2014-Sep-13 04:25N 37°05' E 004°45'1517.3
2014-Sep-13 03:33N 37°05' E 004°26'1717.1
2014-Sep-13 02:33N 37°04' E 004°05'1717.4
2014-Sep-13 01:34N 37°03' E 003°43'1817.5
2014-Sep-13 00:33N 37°00' E 003°21'1818.2
2014-Sep-12 23:33N 36°57' E 002°59'1818.2
2014-Sep-12 22:33N 36°54' E 002°36'1817.8
2014-Sep-12 21:33N 36°50' E 002°14'1817.7
2014-Sep-12 20:33N 36°47' E 001°53'1717.4
2014-Sep-12 19:33N 36°44' E 001°31'1717.0
2014-Sep-12 18:33N 36°39' E 001°11'1716.9
2014-Sep-12 17:33N 36°34' E 000°51'1716.8
2014-Sep-12 16:33N 36°28' E 000°32'1817.8
2014-Sep-12 15:33N 36°18' E 000°13'1717.2
2014-Sep-12 14:33N 36°06' W 000°02'1515.0
2014-Sep-12 13:33N 35°53' W 000°13'3 2.6
2014-Sep-12 12:30N 35°51' W 000°14'45 3.4
2014-Sep-11 23:04N 36°03' W 001°08'  
Track history (hours):
 
Tides and Currents Weather Stations Pressure Air Temp Water Temp Dewpoint Dewpoint Depression Visibility Wind Speed Wind Dir Waves Ship Positions

Cheikh El Mokrani

Last reported at 2014-Sep-21 22:09 UTC. Time now 2014-Sep-23 16:22 UTC.
Position N 41°09' E 005°43'.

Length 220 m; draft 7.9 m.

Type: Ship (hazmat cat D). MMSI: 309979000.

Date/timePositionNaut miles runAvg speedWind from/ knotsBaromVisibWave heightAir tempDewpointWater temp
2014-Sep-21 22:09N 41°09' E 005°43'1216.5
2014-Sep-21 21:26N 41°20' E 005°39'1416.3
2014-Sep-21 20:33N 41°34' E 005°34'2316.2
2014-Sep-21 19:07N 41°57' E 005°27'916.3
2014-Sep-21 18:33N 42°05' E 005°24'1717.0
2014-Sep-21 17:33N 42°22' E 005°18'1716.7
2014-Sep-21 16:33N 42°38' E 005°13'1716.8
2014-Sep-21 15:33N 42°54' E 005°07'1616.4
2014-Sep-21 14:33N 43°10' E 005°01'1313.3
2014-Sep-21 13:34N 43°23' E 004°57'6 5.5
2014-Sep-21 12:31N 43°27' E 004°51'0 0.0
2014-Sep-21 11:28N 43°27' E 004°51'0 0.0
2014-Sep-21 10:31N 43°27' E 004°51'0 0.0
2014-Sep-21 09:28N 43°27' E 004°51'0 0.0
2014-Sep-21 08:31N 43°27' E 004°51'0 0.0
2014-Sep-21 07:31N 43°27' E 004°51'0 0.0
2014-Sep-21 06:31N 43°27' E 004°51'0 0.0
2014-Sep-21 05:31N 43°27' E 004°51'0 0.0
2014-Sep-21 04:31N 43°27' E 004°51'0 0.0
2014-Sep-21 03:25N 43°27' E 004°51'0 0.0
2014-Sep-21 02:31N 43°27' E 004°51'0 0.0
2014-Sep-21 01:28N 43°27' E 004°51'0 0.0
2014-Sep-21 00:28N 43°27' E 004°51'0 0.0
2014-Sep-20 23:31N 43°27' E 004°51'0 0.0
2014-Sep-20 22:28N 43°27' E 004°51'0 0.0
2014-Sep-20 21:31N 43°27' E 004°51'0 0.0
2014-Sep-20 20:28N 43°27' E 004°51'0 0.0
2014-Sep-20 19:31N 43°27' E 004°51'0 0.0
2014-Sep-20 18:31N 43°27' E 004°51'0 0.0
2014-Sep-20 17:31N 43°27' E 004°51'0 0.0
2014-Sep-20 16:31N 43°27' E 004°51'0 0.0
2014-Sep-20 15:31N 43°27' E 004°51'0 0.0
2014-Sep-20 14:31N 43°27' E 004°51'0 0.0
2014-Sep-20 13:31N 43°27' E 004°51'0 0.0
2014-Sep-20 12:28N 43°27' E 004°51'0 0.0
2014-Sep-20 11:31N 43°27' E 004°51'0 0.0
2014-Sep-20 10:31N 43°27' E 004°51'0 0.0
2014-Sep-20 09:31N 43°27' E 004°51'0 0.0
2014-Sep-20 08:28N 43°27' E 004°51'0 0.0
2014-Sep-20 07:31N 43°27' E 004°51'0 0.0
2014-Sep-20 06:28N 43°27' E 004°51'0 0.0
2014-Sep-20 05:28N 43°27' E 004°51'0 0.0
2014-Sep-20 04:31N 43°27' E 004°51'0 0.0
2014-Sep-20 03:31N 43°27' E 004°51'0 0.0
2014-Sep-20 02:31N 43°27' E 004°51'0 0.0
2014-Sep-20 01:31N 43°27' E 004°51'0 0.0
2014-Sep-20 00:25N 43°27' E 004°51'0 0.0
2014-Sep-19 23:31N 43°27' E 004°51'0 0.0
2014-Sep-19 22:31N 43°27' E 004°51'0 0.0
2014-Sep-19 21:31N 43°27' E 004°51'0 0.0
2014-Sep-19 20:28N 43°27' E 004°51'0 0.0
2014-Sep-19 19:28N 43°27' E 004°51'0 0.0
2014-Sep-19 18:31N 43°27' E 004°51'0 0.0
2014-Sep-19 17:28N 43°27' E 004°51'0 0.0
2014-Sep-19 16:33N 43°27' E 004°51'3 3.0
2014-Sep-19 15:34N 43°24' E 004°53'8 8.4
2014-Sep-19 14:34N 43°18' E 005°00'8 8.5
2014-Sep-19 13:34N 43°09' E 005°03'10 9.8
2014-Sep-19 12:34N 42°60' E 005°06'20 9.6
2014-Sep-19 10:30N 42°41' E 005°13'1010.4
2014-Sep-19 09:30N 42°31' E 005°17'3213.7
2014-Sep-19 07:10N 41°60' E 005°28'56 2.7
2014-Sep-18 10:25N 41°05' E 005°48'1 0.5
2014-Sep-18 09:12N 41°05' E 005°48'4 6.3
2014-Sep-18 08:31N 41°00' E 005°48'14210.0
2014-Sep-17 18:14N 38°43' E 006°34'912.4
2014-Sep-17 17:32N 38°34' E 006°36'1712.2
2014-Sep-17 16:08N 38°18' E 006°42'811.7
2014-Sep-17 15:24N 38°10' E 006°45'2712.3
2014-Sep-17 13:11N 37°43' E 006°53'2212.4
2014-Sep-17 11:26N 37°22' E 007°01'  
2014-Sep-13 04:25N 37°05' E 004°45'1517.3
2014-Sep-13 03:33N 37°05' E 004°26'1717.1
2014-Sep-13 02:33N 37°04' E 004°05'1717.4
2014-Sep-13 01:34N 37°03' E 003°43'1817.5
2014-Sep-13 00:33N 37°00' E 003°21'1818.2
2014-Sep-12 23:33N 36°57' E 002°59'1818.2
2014-Sep-12 22:33N 36°54' E 002°36'1817.8
2014-Sep-12 21:33N 36°50' E 002°14'1817.7
2014-Sep-12 20:33N 36°47' E 001°53'1717.4
2014-Sep-12 19:33N 36°44' E 001°31'1717.0
2014-Sep-12 18:33N 36°39' E 001°11'1716.9
2014-Sep-12 17:33N 36°34' E 000°51'1716.8
2014-Sep-12 16:33N 36°28' E 000°32'1817.8
2014-Sep-12 15:33N 36°18' E 000°13'1717.2
2014-Sep-12 14:33N 36°06' W 000°02'1515.0
2014-Sep-12 13:33N 35°53' W 000°13'3 2.6
2014-Sep-12 12:30N 35°51' W 000°14'45 3.4
2014-Sep-11 23:04N 36°03' W 001°08'  

Dump ship's entire track history